sensor_id;sensor_type;location;lat;lon;timestamp;temperature;humidity
4604;DHT22;2314;48.272;11.562;2022-11-15T00:00:46;2.30;99.90
4604;DHT22;2314;48.272;11.562;2022-11-15T00:03:14;2.20;99.90
4604;DHT22;2314;48.272;11.562;2022-11-15T00:05:43;2.20;99.90
4604;DHT22;2314;48.272;11.562;2022-11-15T00:08:11;2.10;99.90
4604;DHT22;2314;48.272;11.562;2022-11-15T00:10:38;2.20;99.90
4604;DHT22;2314;48.272;11.562;2022-11-15T00:13:06;2.10;99.90
4604;DHT22;2314;48.272;11.562;2022-11-15T00:15:35;2.10;99.90
4604;DHT22;2314;48.272;11.562;2022-11-15T00:18:03;2.10;99.90
4604;DHT22;2314;48.272;11.562;2022-11-15T00:20:31;2.10;99.90
4604;DHT22;2314;48.272;11.562;2022-11-15T00:23:03;2.10;99.90
4604;DHT22;2314;48.272;11.562;2022-11-15T00:25:30;2.10;99.90
4604;DHT22;2314;48.272;11.562;2022-11-15T00:27:58;2.10;99.90
4604;DHT22;2314;48.272;11.562;2022-11-15T00:30:27;2.10;99.90
4604;DHT22;2314;48.272;11.562;2022-11-15T00:32:55;2.10;99.90
4604;DHT22;2314;48.272;11.562;2022-11-15T00:35:22;2.20;99.90
4604;DHT22;2314;48.272;11.562;2022-11-15T00:37:49;2.20;99.90
4604;DHT22;2314;48.272;11.562;2022-11-15T00:40:18;2.20;99.90
4604;DHT22;2314;48.272;11.562;2022-11-15T00:42:45;2.10;99.90
4604;DHT22;2314;48.272;11.562;2022-11-15T00:45:13;2.00;99.90
4604;DHT22;2314;48.272;11.562;2022-11-15T00:47:40;2.00;99.90
4604;DHT22;2314;48.272;11.562;2022-11-15T00:50:08;1.90;99.90
4604;DHT22;2314;48.272;11.562;2022-11-15T00:52:35;1.80;99.90
4604;DHT22;2314;48.272;11.562;2022-11-15T00:55:03;1.80;99.90
4604;DHT22;2314;48.272;11.562;2022-11-15T00:57:32;1.80;99.90
4604;DHT22;2314;48.272;11.562;2022-11-15T00:59:59;1.70;99.90
4604;DHT22;2314;48.272;11.562;2022-11-15T01:02:26;1.80;99.90
4604;DHT22;2314;48.272;11.562;2022-11-15T01:04:54;1.80;99.90
4604;DHT22;2314;48.272;11.562;2022-11-15T01:07:21;1.80;99.90
4604;DHT22;2314;48.272;11.562;2022-11-15T01:09:48;1.70;99.90
4604;DHT22;2314;48.272;11.562;2022-11-15T01:12:15;1.80;99.90
4604;DHT22;2314;48.272;11.562;2022-11-15T01:14:44;1.80;99.90
4604;DHT22;2314;48.272;11.562;2022-11-15T01:17:11;1.80;99.90
4604;DHT22;2314;48.272;11.562;2022-11-15T01:19:39;1.80;99.90
4604;DHT22;2314;48.272;11.562;2022-11-15T01:22:06;1.80;99.90
4604;DHT22;2314;48.272;11.562;2022-11-15T01:24:34;1.80;99.90
4604;DHT22;2314;48.272;11.562;2022-11-15T01:27:01;1.80;99.90
4604;DHT22;2314;48.272;11.562;2022-11-15T01:29:28;1.90;99.90
4604;DHT22;2314;48.272;11.562;2022-11-15T01:31:57;1.90;99.90
4604;DHT22;2314;48.272;11.562;2022-11-15T01:34:24;1.80;99.90
4604;DHT22;2314;48.272;11.562;2022-11-15T01:36:52;1.70;99.90
4604;DHT22;2314;48.272;11.562;2022-11-15T01:39:19;1.70;99.90
4604;DHT22;2314;48.272;11.562;2022-11-15T01:41:47;1.70;99.90
4604;DHT22;2314;48.272;11.562;2022-11-15T01:44:46;1.80;99.90
4604;DHT22;2314;48.272;11.562;2022-11-15T01:47:18;1.80;99.90
4604;DHT22;2314;48.272;11.562;2022-11-15T01:49:52;1.70;99.90
4604;DHT22;2314;48.272;11.562;2022-11-15T01:52:24;1.60;99.90
4604;DHT22;2314;48.272;11.562;2022-11-15T01:54:57;1.60;99.90
4604;DHT22;2314;48.272;11.562;2022-11-15T01:57:28;1.60;99.90
4604;DHT22;2314;48.272;11.562;2022-11-15T01:59:56;1.60;99.90
4604;DHT22;2314;48.272;11.562;2022-11-15T02:02:25;1.60;99.90
4604;DHT22;2314;48.272;11.562;2022-11-15T02:04:53;1.60;99.90
4604;DHT22;2314;48.272;11.562;2022-11-15T02:07:21;1.60;99.90
4604;DHT22;2314;48.272;11.562;2022-11-15T02:09:49;1.60;99.90
4604;DHT22;2314;48.272;11.562;2022-11-15T02:12:19;1.50;99.90
4604;DHT22;2314;48.272;11.562;2022-11-15T02:14:49;1.50;99.90
4604;DHT22;2314;48.272;11.562;2022-11-15T02:17:33;1.40;99.90
4604;DHT22;2314;48.272;11.562;2022-11-15T02:20:34;1.30;99.90
4604;DHT22;2314;48.272;11.562;2022-11-15T02:26:50;1.40;99.90
4604;DHT22;2314;48.272;11.562;2022-11-15T02:29:52;1.30;99.90
4604;DHT22;2314;48.272;11.562;2022-11-15T02:32:35;1.30;99.90
4604;DHT22;2314;48.272;11.562;2022-11-15T02:35:11;1.20;99.90
4604;DHT22;2314;48.272;11.562;2022-11-15T02:37:47;1.20;99.90
4604;DHT22;2314;48.272;11.562;2022-11-15T02:40:26;1.20;99.90
4604;DHT22;2314;48.272;11.562;2022-11-15T02:43:04;1.20;99.90
4604;DHT22;2314;48.272;11.562;2022-11-15T02:45:58;1.10;99.90
4604;DHT22;2314;48.272;11.562;2022-11-15T02:48:28;1.10;99.90
4604;DHT22;2314;48.272;11.562;2022-11-15T02:50:58;1.10;99.90
4604;DHT22;2314;48.272;11.562;2022-11-15T02:53:27;1.20;99.90
4604;DHT22;2314;48.272;11.562;2022-11-15T02:55:55;1.10;99.90
4604;DHT22;2314;48.272;11.562;2022-11-15T02:58:39;1.00;99.90
4604;DHT22;2314;48.272;11.562;2022-11-15T03:01:24;1.00;99.90
4604;DHT22;2314;48.272;11.562;2022-11-15T03:04:12;1.00;99.90
4604;DHT22;2314;48.272;11.562;2022-11-15T03:06:48;0.90;99.90
4604;DHT22;2314;48.272;11.562;2022-11-15T03:09:28;0.90;99.90
4604;DHT22;2314;48.272;11.562;2022-11-15T03:12:06;0.90;99.90
4604;DHT22;2314;48.272;11.562;2022-11-15T03:14:36;0.90;99.90
4604;DHT22;2314;48.272;11.562;2022-11-15T03:17:11;1.10;99.90
4604;DHT22;2314;48.272;11.562;2022-11-15T03:19:45;1.10;99.90
4604;DHT22;2314;48.272;11.562;2022-11-15T03:22:16;1.10;99.90
4604;DHT22;2314;48.272;11.562;2022-11-15T03:24:47;1.10;99.90
4604;DHT22;2314;48.272;11.562;2022-11-15T03:27:21;1.20;99.90
4604;DHT22;2314;48.272;11.562;2022-11-15T03:29:52;1.30;99.90
4604;DHT22;2314;48.272;11.562;2022-11-15T03:32:25;1.30;99.90
4604;DHT22;2314;48.272;11.562;2022-11-15T03:34:57;1.30;99.90
4604;DHT22;2314;48.272;11.562;2022-11-15T03:37:31;1.20;99.90
4604;DHT22;2314;48.272;11.562;2022-11-15T03:40:01;1.30;99.90
4604;DHT22;2314;48.272;11.562;2022-11-15T03:42:32;1.40;99.90
4604;DHT22;2314;48.272;11.562;2022-11-15T03:45:10;1.40;99.90
4604;DHT22;2314;48.272;11.562;2022-11-15T03:47:43;1.40;99.90
4604;DHT22;2314;48.272;11.562;2022-11-15T03:50:17;1.40;99.90
4604;DHT22;2314;48.272;11.562;2022-11-15T03:52:46;1.30;99.90
4604;DHT22;2314;48.272;11.562;2022-11-15T03:55:17;1.30;99.90
4604;DHT22;2314;48.272;11.562;2022-11-15T03:57:46;1.20;99.90
4604;DHT22;2314;48.272;11.562;2022-11-15T04:00:16;1.20;99.90
4604;DHT22;2314;48.272;11.562;2022-11-15T04:02:44;1.10;99.90
4604;DHT22;2314;48.272;11.562;2022-11-15T04:05:11;1.10;99.90
4604;DHT22;2314;48.272;11.562;2022-11-15T04:07:40;1.00;99.90
4604;DHT22;2314;48.272;11.562;2022-11-15T04:10:09;1.00;99.90
4604;DHT22;2314;48.272;11.562;2022-11-15T04:12:37;0.90;99.90
4604;DHT22;2314;48.272;11.562;2022-11-15T04:15:09;0.90;99.90
4604;DHT22;2314;48.272;11.562;2022-11-15T04:17:39;0.90;99.90
4604;DHT22;2314;48.272;11.562;2022-11-15T04:20:10;0.90;99.90
4604;DHT22;2314;48.272;11.562;2022-11-15T04:23:02;0.90;99.90
4604;DHT22;2314;48.272;11.562;2022-11-15T04:25:50;0.90;99.90
4604;DHT22;2314;48.272;11.562;2022-11-15T04:28:18;0.90;99.90
4604;DHT22;2314;48.272;11.562;2022-11-15T04:30:46;0.80;99.90
4604;DHT22;2314;48.272;11.562;2022-11-15T04:33:14;0.90;99.90
4604;DHT22;2314;48.272;11.562;2022-11-15T04:35:42;0.90;99.90
4604;DHT22;2314;48.272;11.562;2022-11-15T04:38:31;0.90;99.90
4604;DHT22;2314;48.272;11.562;2022-11-15T04:40:57;0.80;99.90
4604;DHT22;2314;48.272;11.562;2022-11-15T04:43:24;0.80;99.90
4604;DHT22;2314;48.272;11.562;2022-11-15T04:45:52;0.80;99.90
4604;DHT22;2314;48.272;11.562;2022-11-15T04:48:19;0.80;99.90
4604;DHT22;2314;48.272;11.562;2022-11-15T04:50:48;0.70;99.90
4604;DHT22;2314;48.272;11.562;2022-11-15T04:53:15;0.70;99.90
4604;DHT22;2314;48.272;11.562;2022-11-15T04:55:46;0.70;99.90
4604;DHT22;2314;48.272;11.562;2022-11-15T04:58:13;0.70;99.90
4604;DHT22;2314;48.272;11.562;2022-11-15T05:00:40;0.70;99.90
4604;DHT22;2314;48.272;11.562;2022-11-15T05:03:09;0.70;99.90
4604;DHT22;2314;48.272;11.562;2022-11-15T05:05:54;0.70;99.90
4604;DHT22;2314;48.272;11.562;2022-11-15T05:08:21;0.60;99.90
4604;DHT22;2314;48.272;11.562;2022-11-15T05:10:50;0.60;99.90
4604;DHT22;2314;48.272;11.562;2022-11-15T05:13:17;0.60;99.90
4604;DHT22;2314;48.272;11.562;2022-11-15T05:15:45;0.60;99.90
4604;DHT22;2314;48.272;11.562;2022-11-15T05:18:12;0.60;99.90
4604;DHT22;2314;48.272;11.562;2022-11-15T05:20:39;0.60;99.90
4604;DHT22;2314;48.272;11.562;2022-11-15T05:23:06;0.50;99.90
4604;DHT22;2314;48.272;11.562;2022-11-15T05:25:35;0.40;99.90
4604;DHT22;2314;48.272;11.562;2022-11-15T05:28:04;0.50;99.90
4604;DHT22;2314;48.272;11.562;2022-11-15T05:30:31;0.50;99.90
4604;DHT22;2314;48.272;11.562;2022-11-15T05:32:58;0.50;99.90
4604;DHT22;2314;48.272;11.562;2022-11-15T05:35:30;0.50;99.90
4604;DHT22;2314;48.272;11.562;2022-11-15T05:37:58;0.50;99.90
4604;DHT22;2314;48.272;11.562;2022-11-15T05:40:25;0.60;99.90
4604;DHT22;2314;48.272;11.562;2022-11-15T05:42:52;0.60;99.90
4604;DHT22;2314;48.272;11.562;2022-11-15T05:45:21;0.60;99.90
4604;DHT22;2314;48.272;11.562;2022-11-15T05:47:49;0.60;99.90
4604;DHT22;2314;48.272;11.562;2022-11-15T05:50:18;0.60;99.90
4604;DHT22;2314;48.272;11.562;2022-11-15T05:52:46;0.60;99.90
4604;DHT22;2314;48.272;11.562;2022-11-15T05:55:14;0.60;99.90
4604;DHT22;2314;48.272;11.562;2022-11-15T05:57:41;0.70;99.90
4604;DHT22;2314;48.272;11.562;2022-11-15T06:00:09;0.70;99.90
4604;DHT22;2314;48.272;11.562;2022-11-15T06:02:38;0.70;99.90
4604;DHT22;2314;48.272;11.562;2022-11-15T06:05:05;0.70;99.90
4604;DHT22;2314;48.272;11.562;2022-11-15T06:07:32;0.60;99.90
4604;DHT22;2314;48.272;11.562;2022-11-15T06:10:00;0.60;99.90
4604;DHT22;2314;48.272;11.562;2022-11-15T06:12:27;0.60;99.90
4604;DHT22;2314;48.272;11.562;2022-11-15T06:14:54;0.60;99.90
4604;DHT22;2314;48.272;11.562;2022-11-15T06:17:21;0.60;99.90
4604;DHT22;2314;48.272;11.562;2022-11-15T06:19:49;0.60;99.90
4604;DHT22;2314;48.272;11.562;2022-11-15T06:22:16;0.60;99.90
4604;DHT22;2314;48.272;11.562;2022-11-15T06:24:43;0.70;99.90
4604;DHT22;2314;48.272;11.562;2022-11-15T06:27:11;0.80;99.90
4604;DHT22;2314;48.272;11.562;2022-11-15T06:29:38;0.90;99.90
4604;DHT22;2314;48.272;11.562;2022-11-15T06:32:05;0.90;99.90
4604;DHT22;2314;48.272;11.562;2022-11-15T06:34:32;1.00;99.90
4604;DHT22;2314;48.272;11.562;2022-11-15T06:37:02;1.00;99.90
4604;DHT22;2314;48.272;11.562;2022-11-15T06:39:29;1.00;99.90
4604;DHT22;2314;48.272;11.562;2022-11-15T06:41:56;1.00;99.90
4604;DHT22;2314;48.272;11.562;2022-11-15T06:44:23;1.00;99.90
4604;DHT22;2314;48.272;11.562;2022-11-15T06:46:50;1.00;99.90
4604;DHT22;2314;48.272;11.562;2022-11-15T06:49:17;1.00;99.90
4604;DHT22;2314;48.272;11.562;2022-11-15T06:51:44;1.00;99.90
4604;DHT22;2314;48.272;11.562;2022-11-15T06:54:13;1.00;99.90
4604;DHT22;2314;48.272;11.562;2022-11-15T06:56:40;1.00;99.90
4604;DHT22;2314;48.272;11.562;2022-11-15T06:59:07;1.00;99.90
4604;DHT22;2314;48.272;11.562;2022-11-15T07:01:34;1.10;99.90
4604;DHT22;2314;48.272;11.562;2022-11-15T07:04:01;1.10;99.90
4604;DHT22;2314;48.272;11.562;2022-11-15T07:06:28;1.10;99.90
4604;DHT22;2314;48.272;11.562;2022-11-15T07:08:55;1.20;99.90
4604;DHT22;2314;48.272;11.562;2022-11-15T07:11:24;1.20;99.90
4604;DHT22;2314;48.272;11.562;2022-11-15T07:13:51;1.20;99.90
4604;DHT22;2314;48.272;11.562;2022-11-15T07:16:18;1.30;99.90
4604;DHT22;2314;48.272;11.562;2022-11-15T07:18:45;1.30;99.90
4604;DHT22;2314;48.272;11.562;2022-11-15T07:21:12;1.30;99.90
4604;DHT22;2314;48.272;11.562;2022-11-15T07:23:40;1.40;99.90
4604;DHT22;2314;48.272;11.562;2022-11-15T07:26:07;1.40;99.90
4604;DHT22;2314;48.272;11.562;2022-11-15T07:28:36;1.50;99.90
4604;DHT22;2314;48.272;11.562;2022-11-15T07:31:03;1.70;99.90
4604;DHT22;2314;48.272;11.562;2022-11-15T07:33:32;1.80;99.90
4604;DHT22;2314;48.272;11.562;2022-11-15T07:36:00;2.00;99.90
4604;DHT22;2314;48.272;11.562;2022-11-15T07:38:29;2.20;99.90
4604;DHT22;2314;48.272;11.562;2022-11-15T07:40:57;2.50;99.90
4604;DHT22;2314;48.272;11.562;2022-11-15T07:43:25;2.90;99.90
4604;DHT22;2314;48.272;11.562;2022-11-15T07:45:54;3.20;99.90
4604;DHT22;2314;48.272;11.562;2022-11-15T07:48:22;3.40;99.90
4604;DHT22;2314;48.272;11.562;2022-11-15T07:50:49;3.90;99.90
4604;DHT22;2314;48.272;11.562;2022-11-15T07:53:16;4.60;99.90
4604;DHT22;2314;48.272;11.562;2022-11-15T07:55:43;5.00;99.90
4604;DHT22;2314;48.272;11.562;2022-11-15T07:58:11;5.60;99.90
4604;DHT22;2314;48.272;11.562;2022-11-15T08:00:38;6.30;99.90
4604;DHT22;2314;48.272;11.562;2022-11-15T08:03:09;6.80;99.90
4604;DHT22;2314;48.272;11.562;2022-11-15T08:05:39;7.10;99.90
4604;DHT22;2314;48.272;11.562;2022-11-15T08:08:08;7.40;99.90
4604;DHT22;2314;48.272;11.562;2022-11-15T08:10:36;7.30;99.90
4604;DHT22;2314;48.272;11.562;2022-11-15T08:13:05;7.20;99.90
4604;DHT22;2314;48.272;11.562;2022-11-15T08:15:34;6.90;99.90
4604;DHT22;2314;48.272;11.562;2022-11-15T08:18:04;6.60;99.90
4604;DHT22;2314;48.272;11.562;2022-11-15T08:20:33;6.60;99.90
4604;DHT22;2314;48.272;11.562;2022-11-15T08:23:02;6.70;99.90
4604;DHT22;2314;48.272;11.562;2022-11-15T08:25:31;6.60;99.90
4604;DHT22;2314;48.272;11.562;2022-11-15T08:28:02;6.40;99.90
4604;DHT22;2314;48.272;11.562;2022-11-15T08:30:30;6.40;99.90
4604;DHT22;2314;48.272;11.562;2022-11-15T08:32:58;6.50;99.90
4604;DHT22;2314;48.272;11.562;2022-11-15T08:35:25;6.20;99.90
4604;DHT22;2314;48.272;11.562;2022-11-15T08:37:54;6.00;99.90
4604;DHT22;2314;48.272;11.562;2022-11-15T08:40:21;5.90;99.90
4604;DHT22;2314;48.272;11.562;2022-11-15T08:42:48;5.70;99.90
4604;DHT22;2314;48.272;11.562;2022-11-15T08:45:16;5.70;99.90
4604;DHT22;2314;48.272;11.562;2022-11-15T08:47:43;5.70;99.90
4604;DHT22;2314;48.272;11.562;2022-11-15T08:50:10;5.70;99.90
4604;DHT22;2314;48.272;11.562;2022-11-15T08:52:37;5.80;99.90
4604;DHT22;2314;48.272;11.562;2022-11-15T08:55:06;5.90;99.90
4604;DHT22;2314;48.272;11.562;2022-11-15T08:57:34;5.90;99.90
4604;DHT22;2314;48.272;11.562;2022-11-15T09:00:01;5.90;99.90
4604;DHT22;2314;48.272;11.562;2022-11-15T09:02:29;5.90;99.90
4604;DHT22;2314;48.272;11.562;2022-11-15T09:04:56;5.90;99.90
4604;DHT22;2314;48.272;11.562;2022-11-15T09:07:23;6.00;99.90
4604;DHT22;2314;48.272;11.562;2022-11-15T09:09:51;6.00;99.90
4604;DHT22;2314;48.272;11.562;2022-11-15T09:12:19;6.10;99.90
4604;DHT22;2314;48.272;11.562;2022-11-15T09:14:46;6.20;99.90
4604;DHT22;2314;48.272;11.562;2022-11-15T09:17:13;6.20;99.90
4604;DHT22;2314;48.272;11.562;2022-11-15T09:19:40;6.40;99.90
4604;DHT22;2314;48.272;11.562;2022-11-15T09:22:08;6.60;99.90
4604;DHT22;2314;48.272;11.562;2022-11-15T09:24:35;6.70;99.90
4604;DHT22;2314;48.272;11.562;2022-11-15T09:27:03;6.80;99.90
4604;DHT22;2314;48.272;11.562;2022-11-15T09:29:31;6.90;99.90
4604;DHT22;2314;48.272;11.562;2022-11-15T09:31:59;6.90;99.90
4604;DHT22;2314;48.272;11.562;2022-11-15T09:34:26;7.00;99.90
4604;DHT22;2314;48.272;11.562;2022-11-15T09:36:53;7.10;99.90
4604;DHT22;2314;48.272;11.562;2022-11-15T09:39:20;7.30;99.90
4604;DHT22;2314;48.272;11.562;2022-11-15T09:45:13;7.80;99.90
4604;DHT22;2314;48.272;11.562;2022-11-15T09:48:09;8.20;99.90
4604;DHT22;2314;48.272;11.562;2022-11-15T09:50:56;8.50;99.90
4604;DHT22;2314;48.272;11.562;2022-11-15T09:53:29;8.80;99.90
4604;DHT22;2314;48.272;11.562;2022-11-15T09:56:01;9.00;99.90
4604;DHT22;2314;48.272;11.562;2022-11-15T09:58:35;9.30;99.90
4604;DHT22;2314;48.272;11.562;2022-11-15T10:01:10;9.60;99.90
4604;DHT22;2314;48.272;11.562;2022-11-15T10:03:41;9.70;99.90
4604;DHT22;2314;48.272;11.562;2022-11-15T10:06:18;9.80;99.90
4604;DHT22;2314;48.272;11.562;2022-11-15T10:08:57;10.00;99.90
4604;DHT22;2314;48.272;11.562;2022-11-15T10:11:28;10.30;99.90
4604;DHT22;2314;48.272;11.562;2022-11-15T10:14:01;10.40;99.90
4604;DHT22;2314;48.272;11.562;2022-11-15T10:16:52;10.40;99.90
4604;DHT22;2314;48.272;11.562;2022-11-15T10:19:47;10.60;99.90
4604;DHT22;2314;48.272;11.562;2022-11-15T10:22:27;10.60;99.90
4604;DHT22;2314;48.272;11.562;2022-11-15T10:25:12;10.70;99.90
4604;DHT22;2314;48.272;11.562;2022-11-15T10:27:45;10.90;99.90
4604;DHT22;2314;48.272;11.562;2022-11-15T10:30:21;10.90;99.90
4604;DHT22;2314;48.272;11.562;2022-11-15T10:32:50;11.10;99.90
4604;DHT22;2314;48.272;11.562;2022-11-15T10:35:20;11.30;99.90
4604;DHT22;2314;48.272;11.562;2022-11-15T10:37:50;11.40;99.90
4604;DHT22;2314;48.272;11.562;2022-11-15T10:40:20;11.60;99.90
4604;DHT22;2314;48.272;11.562;2022-11-15T10:43:03;11.80;99.90
4604;DHT22;2314;48.272;11.562;2022-11-15T10:45:32;11.80;99.90
4604;DHT22;2314;48.272;11.562;2022-11-15T10:50:55;11.90;99.90
4604;DHT22;2314;48.272;11.562;2022-11-15T10:53:28;12.10;99.90
4604;DHT22;2314;48.272;11.562;2022-11-15T10:56:00;12.00;99.90
4604;DHT22;2314;48.272;11.562;2022-11-15T10:58:36;11.90;99.90
4604;DHT22;2314;48.272;11.562;2022-11-15T11:01:18;12.10;99.90
4604;DHT22;2314;48.272;11.562;2022-11-15T11:03:58;12.30;99.90
4604;DHT22;2314;48.272;11.562;2022-11-15T11:06:28;12.40;99.90
4604;DHT22;2314;48.272;11.562;2022-11-15T11:08:58;12.40;99.90
4604;DHT22;2314;48.272;11.562;2022-11-15T11:11:44;12.30;99.90
4604;DHT22;2314;48.272;11.562;2022-11-15T11:14:13;12.20;99.90
4604;DHT22;2314;48.272;11.562;2022-11-15T11:16:47;12.30;99.90
4604;DHT22;2314;48.272;11.562;2022-11-15T11:19:32;12.40;99.90
4604;DHT22;2314;48.272;11.562;2022-11-15T11:22:11;12.30;99.90
4604;DHT22;2314;48.272;11.562;2022-11-15T11:24:47;12.30;99.90
4604;DHT22;2314;48.272;11.562;2022-11-15T11:27:40;12.60;99.90
4604;DHT22;2314;48.272;11.562;2022-11-15T11:30:14;12.80;99.90
4604;DHT22;2314;48.272;11.562;2022-11-15T11:32:52;12.80;99.90
4604;DHT22;2314;48.272;11.562;2022-11-15T11:35:29;12.80;99.90
4604;DHT22;2314;48.272;11.562;2022-11-15T11:38:15;12.90;99.90
4604;DHT22;2314;48.272;11.562;2022-11-15T11:40:59;12.80;99.90
4604;DHT22;2314;48.272;11.562;2022-11-15T11:43:37;12.60;99.90
4604;DHT22;2314;48.272;11.562;2022-11-15T11:46:18;12.70;99.90
4604;DHT22;2314;48.272;11.562;2022-11-15T11:48:58;12.70;99.90
4604;DHT22;2314;48.272;11.562;2022-11-15T11:51:34;12.80;99.90
4604;DHT22;2314;48.272;11.562;2022-11-15T11:54:12;13.00;99.90
4604;DHT22;2314;48.272;11.562;2022-11-15T11:56:43;13.00;99.90
4604;DHT22;2314;48.272;11.562;2022-11-15T11:59:17;12.90;99.90
4604;DHT22;2314;48.272;11.562;2022-11-15T12:01:48;12.80;99.90
4604;DHT22;2314;48.272;11.562;2022-11-15T12:04:18;12.80;99.90
4604;DHT22;2314;48.272;11.562;2022-11-15T12:06:52;12.70;99.90
4604;DHT22;2314;48.272;11.562;2022-11-15T12:09:27;12.70;99.90
4604;DHT22;2314;48.272;11.562;2022-11-15T12:12:04;12.60;99.90
4604;DHT22;2314;48.272;11.562;2022-11-15T12:14:38;12.90;99.90
4604;DHT22;2314;48.272;11.562;2022-11-15T12:17:21;12.80;99.90
4604;DHT22;2314;48.272;11.562;2022-11-15T12:19:51;12.90;99.90
4604;DHT22;2314;48.272;11.562;2022-11-15T12:22:21;12.90;99.90
4604;DHT22;2314;48.272;11.562;2022-11-15T12:24:55;12.90;99.90
4604;DHT22;2314;48.272;11.562;2022-11-15T12:27:32;12.90;99.90
4604;DHT22;2314;48.272;11.562;2022-11-15T12:30:07;12.80;99.90
4604;DHT22;2314;48.272;11.562;2022-11-15T12:32:37;12.80;99.90
4604;DHT22;2314;48.272;11.562;2022-11-15T12:35:21;12.80;99.90
4604;DHT22;2314;48.272;11.562;2022-11-15T12:37:52;12.80;99.90
4604;DHT22;2314;48.272;11.562;2022-11-15T12:40:37;12.90;99.90
4604;DHT22;2314;48.272;11.562;2022-11-15T12:46:19;12.80;99.90
4604;DHT22;2314;48.272;11.562;2022-11-15T12:48:51;12.90;99.90
4604;DHT22;2314;48.272;11.562;2022-11-15T12:51:22;12.90;99.90
4604;DHT22;2314;48.272;11.562;2022-11-15T13:00:44;13.30;99.90
4604;DHT22;2314;48.272;11.562;2022-11-15T13:03:27;13.30;99.90
4604;DHT22;2314;48.272;11.562;2022-11-15T13:06:09;13.30;99.90
4604;DHT22;2314;48.272;11.562;2022-11-15T13:08:58;13.50;99.90
4604;DHT22;2314;48.272;11.562;2022-11-15T13:11:45;13.30;99.90
4604;DHT22;2314;48.272;11.562;2022-11-15T13:14:42;13.40;99.90
4604;DHT22;2314;48.272;11.562;2022-11-15T13:17:35;13.50;99.90
4604;DHT22;2314;48.272;11.562;2022-11-15T13:20:20;13.60;99.90
4604;DHT22;2314;48.272;11.562;2022-11-15T13:23:07;13.50;99.90
4604;DHT22;2314;48.272;11.562;2022-11-15T13:26:02;13.50;99.90
4604;DHT22;2314;48.272;11.562;2022-11-15T13:28:38;13.50;99.90
4604;DHT22;2314;48.272;11.562;2022-11-15T13:31:22;13.30;99.90
4604;DHT22;2314;48.272;11.562;2022-11-15T13:34:12;13.20;99.90
4604;DHT22;2314;48.272;11.562;2022-11-15T13:36:43;13.30;99.90
4604;DHT22;2314;48.272;11.562;2022-11-15T13:39:23;13.30;99.90
4604;DHT22;2314;48.272;11.562;2022-11-15T13:41:54;13.30;99.90
4604;DHT22;2314;48.272;11.562;2022-11-15T13:44:23;13.30;99.90
4604;DHT22;2314;48.272;11.562;2022-11-15T13:47:01;13.20;99.90
4604;DHT22;2314;48.272;11.562;2022-11-15T13:49:30;13.10;99.90
4604;DHT22;2314;48.272;11.562;2022-11-15T13:51:59;13.10;99.90
4604;DHT22;2314;48.272;11.562;2022-11-15T13:54:29;13.10;99.90
4604;DHT22;2314;48.272;11.562;2022-11-15T13:57:02;13.10;99.90
4604;DHT22;2314;48.272;11.562;2022-11-15T13:59:33;13.10;99.90
4604;DHT22;2314;48.272;11.562;2022-11-15T14:02:12;13.00;99.90
4604;DHT22;2314;48.272;11.562;2022-11-15T14:04:47;12.90;99.90
4604;DHT22;2314;48.272;11.562;2022-11-15T14:07:18;12.80;99.90
4604;DHT22;2314;48.272;11.562;2022-11-15T14:09:47;12.80;99.90
4604;DHT22;2314;48.272;11.562;2022-11-15T14:12:34;12.80;99.90
4604;DHT22;2314;48.272;11.562;2022-11-15T14:15:23;12.80;99.90
4604;DHT22;2314;48.272;11.562;2022-11-15T14:17:52;12.80;99.90
4604;DHT22;2314;48.272;11.562;2022-11-15T14:20:26;12.80;99.90
4604;DHT22;2314;48.272;11.562;2022-11-15T14:22:57;12.80;99.90
4604;DHT22;2314;48.272;11.562;2022-11-15T14:25:25;12.80;99.90
4604;DHT22;2314;48.272;11.562;2022-11-15T14:28:15;12.70;99.90
4604;DHT22;2314;48.272;11.562;2022-11-15T14:30:57;12.70;99.90
4604;DHT22;2314;48.272;11.562;2022-11-15T14:33:28;12.60;99.90
4604;DHT22;2314;48.272;11.562;2022-11-15T14:35:58;12.50;99.90
4604;DHT22;2314;48.272;11.562;2022-11-15T14:38:29;12.40;99.90
4604;DHT22;2314;48.272;11.562;2022-11-15T14:40:56;12.20;99.90
4604;DHT22;2314;48.272;11.562;2022-11-15T14:43:25;12.10;99.90
4604;DHT22;2314;48.272;11.562;2022-11-15T14:45:52;12.00;99.90
4604;DHT22;2314;48.272;11.562;2022-11-15T14:48:19;11.80;99.90
4604;DHT22;2314;48.272;11.562;2022-11-15T14:50:47;11.60;99.90
4604;DHT22;2314;48.272;11.562;2022-11-15T14:53:16;11.40;99.90
4604;DHT22;2314;48.272;11.562;2022-11-15T14:55:44;11.20;99.90
4604;DHT22;2314;48.272;11.562;2022-11-15T14:58:11;11.00;99.90
4604;DHT22;2314;48.272;11.562;2022-11-15T15:00:40;10.80;99.90
4604;DHT22;2314;48.272;11.562;2022-11-15T15:03:08;10.60;99.90
4604;DHT22;2314;48.272;11.562;2022-11-15T15:05:38;10.50;99.90
4604;DHT22;2314;48.272;11.562;2022-11-15T15:08:07;10.30;99.90
4604;DHT22;2314;48.272;11.562;2022-11-15T15:10:36;10.30;99.90
4604;DHT22;2314;48.272;11.562;2022-11-15T15:13:04;10.10;99.90
4604;DHT22;2314;48.272;11.562;2022-11-15T15:15:34;10.00;99.90
4604;DHT22;2314;48.272;11.562;2022-11-15T15:18:03;9.80;99.90
4604;DHT22;2314;48.272;11.562;2022-11-15T15:20:32;9.70;99.90
4604;DHT22;2314;48.272;11.562;2022-11-15T15:22:59;9.60;99.90
4604;DHT22;2314;48.272;11.562;2022-11-15T15:25:27;9.40;99.90
4604;DHT22;2314;48.272;11.562;2022-11-15T15:27:56;9.30;99.90
4604;DHT22;2314;48.272;11.562;2022-11-15T15:30:24;9.10;99.90
4604;DHT22;2314;48.272;11.562;2022-11-15T15:32:52;9.00;99.90
4604;DHT22;2314;48.272;11.562;2022-11-15T15:35:21;8.90;99.90
4604;DHT22;2314;48.272;11.562;2022-11-15T15:37:49;8.80;99.90
4604;DHT22;2314;48.272;11.562;2022-11-15T15:40:18;8.60;99.90
4604;DHT22;2314;48.272;11.562;2022-11-15T15:42:46;8.50;99.90
4604;DHT22;2314;48.272;11.562;2022-11-15T15:45:14;8.40;99.90
4604;DHT22;2314;48.272;11.562;2022-11-15T15:47:42;8.30;99.90
4604;DHT22;2314;48.272;11.562;2022-11-15T15:50:22;8.20;99.90
4604;DHT22;2314;48.272;11.562;2022-11-15T15:52:51;8.00;99.90
4604;DHT22;2314;48.272;11.562;2022-11-15T15:55:20;7.80;99.90
4604;DHT22;2314;48.272;11.562;2022-11-15T15:57:47;7.70;99.90
4604;DHT22;2314;48.272;11.562;2022-11-15T16:00:16;7.60;99.90
4604;DHT22;2314;48.272;11.562;2022-11-15T16:02:44;7.50;99.90
4604;DHT22;2314;48.272;11.562;2022-11-15T16:05:12;7.40;99.90
4604;DHT22;2314;48.272;11.562;2022-11-15T16:07:41;7.40;99.90
4604;DHT22;2314;48.272;11.562;2022-11-15T16:10:17;7.30;99.90
4604;DHT22;2314;48.272;11.562;2022-11-15T16:12:50;7.30;99.90
4604;DHT22;2314;48.272;11.562;2022-11-15T16:15:18;7.20;99.90
4604;DHT22;2314;48.272;11.562;2022-11-15T16:17:48;7.10;99.90
4604;DHT22;2314;48.272;11.562;2022-11-15T16:20:33;7.10;99.90
4604;DHT22;2314;48.272;11.562;2022-11-15T16:23:05;7.00;99.90
4604;DHT22;2314;48.272;11.562;2022-11-15T16:25:37;7.10;99.90
4604;DHT22;2314;48.272;11.562;2022-11-15T16:28:15;7.00;99.90
4604;DHT22;2314;48.272;11.562;2022-11-15T16:30:43;7.00;99.90
4604;DHT22;2314;48.272;11.562;2022-11-15T16:33:10;7.00;99.90
4604;DHT22;2314;48.272;11.562;2022-11-15T16:35:38;7.00;99.90
4604;DHT22;2314;48.272;11.562;2022-11-15T16:38:08;7.00;99.90
4604;DHT22;2314;48.272;11.562;2022-11-15T16:40:39;7.00;99.90
4604;DHT22;2314;48.272;11.562;2022-11-15T16:43:07;7.00;99.90
4604;DHT22;2314;48.272;11.562;2022-11-15T16:45:34;7.00;99.90